Time;durP1;ratioP1;P1;durP2;ratioP2;P2;SDS_P1;SDS_P2;PMS_P1;PMS_P2;Temp;Humidity;BMP_temperature;BMP_pressure;BME280_temperature;BME280_humidity;BME280_pressure;Samples;Min_cycle;Max_cycle;Signal;HPM_P1;HPM_P2
2021/09/01 00:02:24;;;;;;;9.40;4.20;;;;;;;13.40;75.34;102914.06;5012427;28;20424;-89
2021/09/01 00:04:50;;;;;;;8.27;5.18;;;;;;;13.44;74.85;102920.03;4982339;28;20496;-88
2021/09/01 00:07:15;;;;;;;8.55;3.85;;;;;;;13.41;74.66;102915.75;4991574;28;20021;-88
2021/09/01 00:09:41;;;;;;;6.93;4.03;;;;;;;13.34;74.48;102910.09;4987702;28;20022;-87
2021/09/01 00:12:07;;;;;;;9.38;3.80;;;;;;;13.44;74.46;102917.34;4985700;28;20042;-88
2021/09/01 00:14:34;;;;;;;7.22;3.85;;;;;;;13.35;75.05;102911.78;4994126;28;20033;-89
2021/09/01 00:17:00;;;;;;;10.70;4.90;;;;;;;13.25;74.94;102904.63;4989931;28;20037;-88
2021/09/01 00:19:26;;;;;;;9.20;3.83;;;;;;;13.29;74.71;102906.97;4999610;28;20083;-88
2021/09/01 00:21:52;;;;;;;6.57;3.45;;;;;;;13.29;74.36;102911.50;4993181;28;20029;-88
2021/09/01 00:24:17;;;;;;;7.32;4.03;;;;;;;13.27;74.83;102916.19;5006643;28;20053;-88
2021/09/01 00:26:44;;;;;;;8.55;3.65;;;;;;;13.30;74.52;102916.75;4991140;28;20040;-88
2021/09/01 00:29:09;;;;;;;8.10;3.67;;;;;;;13.39;74.43;102923.19;5003823;28;20359;-87
2021/09/01 00:31:35;;;;;;;9.10;3.75;;;;;;;13.38;74.16;102907.94;4994085;28;20823;-88
2021/09/01 00:34:01;;;;;;;8.02;3.60;;;;;;;13.50;73.97;102919.50;5021491;28;20132;-87
2021/09/01 00:36:26;;;;;;;8.13;3.83;;;;;;;13.41;74.27;102905.81;4996508;28;20068;-87
2021/09/01 00:38:52;;;;;;;7.32;4.18;;;;;;;13.44;74.21;102915.47;4989647;28;20036;-88
2021/09/01 00:41:18;;;;;;;7.30;3.58;;;;;;;13.44;74.46;102912.78;5006488;28;20064;-87
2021/09/01 00:43:46;;;;;;;7.95;3.33;;;;;;;13.44;74.15;102910.06;5016905;28;20018;-87
2021/09/01 00:46:11;;;;;;;8.15;3.88;;;;;;;13.30;74.10;102891.59;5004786;28;20035;-88
2021/09/01 00:48:37;;;;;;;8.38;3.35;;;;;;;13.31;74.27;102899.56;4999717;28;20185;-89
2021/09/01 00:51:03;;;;;;;7.30;3.85;;;;;;;13.26;74.41;102900.94;4991620;28;20028;-87
2021/09/01 00:53:33;;;;;;;6.25;3.15;;;;;;;13.10;74.21;102890.72;5022802;28;20403;-88
2021/09/01 00:55:58;;;;;;;7.15;3.50;;;;;;;13.20;74.39;102907.75;5005171;28;20033;-88
2021/09/01 00:58:24;;;;;;;7.75;3.38;;;;;;;13.16;74.34;102901.78;4990889;28;20040;-87
2021/09/01 01:03:16;;;;;;;8.10;3.53;;;;;;;13.12;74.96;102900.34;5016481;28;20495;-88
2021/09/01 01:05:43;;;;;;;6.50;2.90;;;;;;;13.10;74.97;102896.97;5004573;28;20919;-88
2021/09/01 01:08:10;;;;;;;6.13;3.38;;;;;;;13.03;75.49;102894.97;4998537;28;20550;-88
2021/09/01 01:10:36;;;;;;;5.45;3.00;;;;;;;13.06;75.35;102891.97;4993269;28;20136;-89
2021/09/01 01:13:01;;;;;;;7.80;3.60;;;;;;;13.17;75.24;102898.09;4994167;28;20468;-88
2021/09/01 01:15:27;;;;;;;6.40;3.30;;;;;;;13.16;75.44;102899.09;4994025;28;20038;-89
2021/09/01 01:17:53;;;;;;;4.15;2.72;;;;;;;13.11;75.44;102895.09;4988792;28;20036;-89
2021/09/01 01:20:18;;;;;;;6.90;2.67;;;;;;;13.09;75.20;102891.69;5002195;28;21476;-89
2021/09/01 01:22:44;;;;;;;5.90;2.72;;;;;;;13.07;75.39;102890.97;5004363;28;20116;-89
2021/09/01 01:25:10;;;;;;;5.93;2.97;;;;;;;12.96;75.29;102881.13;4989471;28;20028;-88
2021/09/01 01:27:41;;;;;;;4.75;2.60;;;;;;;12.94;75.05;102891.25;5003799;28;20091;-88
2021/09/01 01:30:11;;;;;;;4.68;2.78;;;;;;;13.05;74.16;102907.31;4988440;28;20029;-88
2021/09/01 01:32:38;;;;;;;6.22;3.25;;;;;;;12.97;73.97;102885.56;4997759;28;20060;-88
2021/09/01 01:35:04;;;;;;;6.57;3.17;;;;;;;13.03;73.67;102895.81;4986022;28;20033;-89
2021/09/01 01:37:30;;;;;;;6.15;2.75;;;;;;;13.05;73.36;102893.81;5001819;28;20397;-88
2021/09/01 01:39:55;;;;;;;5.03;2.55;;;;;;;13.07;73.41;102882.88;5001366;28;20029;-88
2021/09/01 01:42:21;;;;;;;5.75;2.47;;;;;;;13.06;73.30;102892.81;4993146;28;20090;-88
2021/09/01 01:44:46;;;;;;;7.35;2.90;;;;;;;12.96;73.74;102868.47;5008912;28;20396;-88
2021/09/01 01:47:12;;;;;;;5.57;2.25;;;;;;;13.00;73.29;102879.88;4992348;28;20060;-88
2021/09/01 01:49:38;;;;;;;7.47;2.80;;;;;;;12.92;73.33;102863.53;5003166;28;20037;-88
2021/09/01 01:52:04;;;;;;;5.68;2.70;;;;;;;12.97;73.27;102880.16;4998847;28;20028;-89
2021/09/01 01:54:30;;;;;;;4.13;2.75;;;;;;;12.95;73.41;102876.75;4999799;28;20486;-89
2021/09/01 01:56:55;;;;;;;5.22;2.60;;;;;;;12.85;73.47;102865.06;4993636;28;20176;-89
2021/09/01 01:59:27;;;;;;;4.38;2.47;;;;;;;12.95;72.97;102879.44;4997964;28;20025;-89
2021/09/01 02:01:53;;;;;;;6.18;3.17;;;;;;;12.97;73.07;102875.63;5003953;28;20026;-89
2021/09/01 02:04:18;;;;;;;4.97;2.75;;;;;;;12.97;73.05;102877.47;4991141;28;20032;-89
2021/09/01 02:06:44;;;;;;;4.78;2.40;;;;;;;12.95;73.19;102879.44;4993313;28;20029;-89
2021/09/01 02:09:09;;;;;;;8.52;3.17;;;;;;;12.93;73.72;102878.72;5003595;28;20030;-88
2021/09/01 02:11:36;;;;;;;7.53;3.38;;;;;;;12.93;73.09;102878.72;5022495;28;20488;-89
2021/09/01 02:14:02;;;;;;;4.25;2.80;;;;;;;12.85;73.57;102870.47;5004563;28;20032;-89
2021/09/01 02:16:28;;;;;;;5.68;2.80;;;;;;;12.83;73.91;102873.28;4997445;28;20041;-88
2021/09/01 02:18:54;;;;;;;6.65;2.85;;;;;;;12.83;73.70;102864.34;4987408;28;20032;-88
2021/09/01 02:21:19;;;;;;;5.10;2.75;;;;;;;12.86;73.55;102869.47;4990828;28;20490;-88
2021/09/01 02:23:45;;;;;;;6.55;2.67;;;;;;;12.81;74.10;102867.22;4997694;28;20033;-89
2021/09/01 02:26:11;;;;;;;6.60;2.90;;;;;;;12.83;74.33;102878.69;4992408;28;20055;-87
2021/09/01 02:28:38;;;;;;;6.95;3.17;;;;;;;12.88;73.84;102875.59;4989477;28;20498;-88
2021/09/01 02:31:06;;;;;;;6.45;2.97;;;;;;;12.87;73.52;102869.34;4995411;28;20095;-88
2021/09/01 02:33:36;;;;;;;6.72;2.80;;;;;;;12.86;73.71;102861.38;4995053;28;20112;-89
2021/09/01 02:36:05;;;;;;;7.40;3.22;;;;;;;12.84;73.43;102863.38;4997823;28;20102;-88
2021/09/01 02:38:36;;;;;;;5.82;2.65;;;;;;;12.88;73.36;102873.72;4996472;28;20056;-89
2021/09/01 02:41:10;;;;;;;7.30;3.40;;;;;;;12.84;73.42;102864.22;5014730;28;20018;-88
2021/09/01 02:43:41;;;;;;;5.15;2.90;;;;;;;12.91;73.63;102878.00;5004699;28;20021;-89
2021/09/01 02:46:08;;;;;;;7.40;3.03;;;;;;;12.92;73.75;102879.72;5010404;28;20065;-89
2021/09/01 06:09:33;;;;;;;8.85;3.75;;;;;;;12.73;82.75;102849.00;4982626;28;20193;-87
2021/09/01 07:12:49;;;;;;;8.20;3.97;;;;;;;12.75;84.07;102833.53;5660385;23;20088;-88
